createdAt,value
2018-11-02T00:02:35.435Z,3.95
2018-11-02T00:12:35.518Z,3.81
2018-11-02T00:22:35.462Z,2.78
2018-11-02T00:32:35.449Z,3.40
2018-11-02T00:42:35.418Z,4.07
2018-11-02T00:52:35.729Z,3.85
2018-11-02T01:02:35.420Z,3.51
2018-11-02T01:12:35.412Z,3.83
2018-11-02T01:22:35.437Z,4.45
2018-11-02T01:32:35.473Z,3.38
2018-11-02T01:42:35.492Z,3.75
2018-11-02T01:52:35.696Z,3.30
2018-11-02T02:02:35.368Z,3.91
2018-11-02T02:12:35.455Z,3.73
2018-11-02T02:22:35.453Z,4.28
2018-11-02T02:32:35.456Z,3.71
2018-11-02T02:42:35.477Z,3.56
2018-11-02T02:52:35.445Z,3.04
2018-11-02T03:02:35.523Z,3.18
2018-11-02T03:12:35.465Z,2.90
2018-11-02T03:22:35.568Z,3.69
2018-11-02T03:32:35.385Z,3.38
2018-11-02T03:42:35.485Z,3.09
2018-11-02T03:52:35.457Z,3.26
2018-11-02T04:02:35.539Z,3.03
2018-11-02T04:12:35.428Z,3.48
2018-11-02T04:22:35.400Z,3.34
2018-11-02T04:32:35.724Z,2.85
2018-11-02T04:42:35.358Z,2.75
2018-11-02T04:52:35.456Z,2.79
2018-11-02T05:02:35.449Z,1.94
2018-11-02T05:12:35.388Z,3.11
2018-11-02T05:22:35.484Z,2.06
2018-11-02T05:32:36.047Z,2.20
2018-11-02T05:42:35.438Z,2.30
2018-11-02T05:52:35.395Z,2.51
2018-11-02T06:02:35.462Z,2.66
2018-11-02T06:12:35.355Z,2.48
2018-11-02T06:22:35.580Z,2.07
2018-11-02T06:32:35.574Z,2.06
2018-11-02T06:42:35.492Z,1.84
2018-11-02T06:52:35.370Z,1.88
2018-11-02T07:02:35.407Z,1.93
2018-11-02T07:12:35.453Z,1.51
2018-11-02T07:22:35.376Z,2.03
2018-11-02T07:32:35.395Z,1.82
2018-11-02T07:42:35.453Z,1.68
2018-11-02T07:52:35.430Z,1.80
2018-11-02T08:02:35.392Z,1.85
2018-11-02T08:12:35.478Z,2.05
2018-11-02T08:22:35.441Z,2.25
2018-11-02T08:32:35.351Z,2.51
2018-11-02T08:42:35.402Z,2.02
2018-11-02T08:52:35.484Z,2.65
2018-11-02T09:02:35.480Z,2.94
2018-11-02T09:12:35.392Z,1.85
2018-11-02T09:22:35.436Z,1.31
2018-11-02T09:32:35.469Z,1.96
2018-11-02T09:42:35.453Z,1.36
2018-11-02T09:52:38.296Z,2.35
2018-11-02T10:02:35.500Z,1.99
2018-11-02T10:12:35.550Z,2.14
2018-11-02T10:22:35.472Z,1.70
2018-11-02T10:32:35.377Z,2.09
2018-11-02T10:42:35.455Z,2.10
2018-11-02T10:52:35.418Z,1.27
2018-11-02T11:02:35.391Z,2.09
2018-11-02T11:12:35.624Z,2.02
2018-11-02T11:22:35.453Z,1.37
2018-11-02T11:32:35.434Z,2.23
2018-11-02T11:42:35.461Z,1.00
2018-11-02T11:52:35.494Z,1.47
2018-11-02T12:02:35.416Z,2.11
2018-11-02T12:12:35.473Z,1.66
2018-11-02T12:22:35.434Z,1.03
2018-11-02T12:32:35.452Z,1.08
2018-11-02T12:42:35.504Z,0.89
2018-11-02T12:52:35.484Z,1.85
2018-11-02T13:02:35.381Z,2.22
2018-11-02T13:12:35.447Z,1.66
2018-11-02T13:22:35.455Z,2.39
2018-11-02T13:32:35.429Z,1.72
2018-11-02T13:42:35.590Z,1.22
2018-11-02T13:52:35.495Z,1.10
2018-11-02T14:02:35.470Z,1.39
2018-11-02T14:12:36.419Z,1.21
2018-11-02T14:22:35.447Z,2.28
2018-11-02T14:32:35.431Z,1.90
2018-11-02T14:42:35.415Z,0.87
2018-11-02T14:52:35.440Z,1.09
2018-11-02T15:02:35.653Z,0.94
2018-11-02T15:12:35.818Z,1.88
2018-11-02T15:22:35.535Z,1.79
2018-11-02T15:32:35.509Z,0.88
2018-11-02T15:42:36.059Z,0.89
2018-11-02T15:52:35.513Z,0.82
2018-11-02T16:02:35.424Z,0.87
2018-11-02T16:12:38.898Z,1.13
2018-11-02T16:22:35.447Z,1.34
2018-11-02T16:32:35.431Z,0.76
2018-11-02T16:42:35.495Z,0.49
2018-11-02T16:52:35.527Z,0.47
2018-11-02T17:02:35.507Z,0.57
2018-11-02T17:12:35.431Z,0.09
2018-11-02T17:22:35.433Z,0.03
2018-11-02T17:32:35.436Z,0.00
2018-11-02T17:42:35.494Z,0.01
2018-11-02T17:52:35.473Z,0.00
2018-11-02T18:02:35.403Z,0.00
2018-11-02T18:12:35.471Z,0.03
2018-11-02T18:22:35.496Z,0.08
2018-11-02T18:32:35.423Z,0.04
2018-11-02T18:42:35.461Z,0.03
2018-11-02T18:52:35.430Z,0.00
2018-11-02T19:02:35.586Z,0.00
2018-11-02T19:12:35.450Z,0.00
2018-11-02T19:22:35.415Z,0.00
2018-11-02T19:32:35.466Z,0.00
2018-11-02T19:42:35.450Z,0.01
2018-11-02T19:52:35.390Z,0.01
2018-11-02T20:02:36.488Z,0.00
2018-11-02T20:12:35.430Z,0.07
2018-11-02T20:22:35.704Z,0.00
2018-11-02T20:32:35.433Z,0.00
2018-11-02T20:42:35.371Z,0.00
2018-11-02T20:52:35.458Z,0.03
2018-11-02T21:02:35.544Z,0.00
2018-11-02T21:12:35.447Z,0.01
2018-11-02T21:22:35.434Z,0.00
2018-11-02T21:32:35.417Z,0.00
2018-11-02T21:42:35.437Z,0.01
2018-11-02T21:52:35.405Z,0.00
2018-11-02T22:02:35.421Z,0.00
2018-11-02T22:12:35.360Z,0.00
2018-11-02T22:22:35.402Z,0.00
2018-11-02T22:32:35.425Z,0.00
2018-11-02T22:42:35.742Z,0.00
2018-11-02T22:52:35.433Z,0.00
2018-11-02T23:02:35.336Z,0.00
2018-11-02T23:12:35.510Z,0.01
2018-11-02T23:22:35.376Z,0.00
2018-11-02T23:32:35.478Z,0.00
2018-11-02T23:42:35.412Z,0.00
2018-11-02T23:52:35.394Z,0.00
